createdAt,value
2019-01-10T00:01:06.789Z,102200.98
2019-01-10T00:03:35.735Z,102190.55
2019-01-10T00:06:04.855Z,102189.03
2019-01-10T00:08:33.808Z,102196.50
2019-01-10T00:11:02.795Z,102205.42
2019-01-10T00:13:31.654Z,102202.72
2019-01-10T00:16:00.633Z,102208.45
2019-01-10T00:18:31.624Z,102209.23
2019-01-10T00:21:00.736Z,102212.89
2019-01-10T00:23:30.190Z,102214.67
2019-01-10T00:25:59.120Z,102214.19
2019-01-10T00:28:27.909Z,102219.66
2019-01-10T00:30:57.340Z,102225.22
2019-01-10T00:33:26.302Z,102224.62
2019-01-10T00:35:55.492Z,102224.91
2019-01-10T00:38:24.358Z,102231.65
2019-01-10T00:40:53.328Z,102232.25
2019-01-10T00:43:22.175Z,102238.07
2019-01-10T00:45:51.067Z,102236.52
2019-01-10T00:48:20.012Z,102237.34
2019-01-10T00:50:48.957Z,102237.72
2019-01-10T00:53:17.893Z,102235.55
2019-01-10T00:55:46.838Z,102241.38
2019-01-10T00:58:15.931Z,102242.55
2019-01-10T01:00:44.816Z,102238.60
2019-01-10T01:03:13.716Z,102245.81
2019-01-10T01:05:42.864Z,102241.34
2019-01-10T01:08:11.783Z,102248.33
2019-01-10T01:10:43.373Z,102252.14
2019-01-10T01:13:12.314Z,102252.49
2019-01-10T01:15:41.307Z,102250.49
2019-01-10T01:18:10.154Z,102251.63
2019-01-10T01:20:39.004Z,102256.63
2019-01-10T01:23:07.900Z,102253.41
2019-01-10T01:25:36.839Z,102257.89
2019-01-10T01:28:05.723Z,102255.80
2019-01-10T01:30:34.648Z,102265.27
2019-01-10T01:33:05.709Z,102277.95
2019-01-10T01:35:34.615Z,102288.63
2019-01-10T01:38:04.070Z,102287.07
2019-01-10T01:40:33.011Z,102288.28
2019-01-10T01:43:07.568Z,102296.19
2019-01-10T01:45:34.940Z,102298.89
2019-01-10T01:48:04.139Z,102299.75
2019-01-10T01:50:33.011Z,102298.06
2019-01-10T01:53:01.928Z,102297.75
2019-01-10T01:55:31.053Z,102293.14
2019-01-10T01:58:01.963Z,102301.69
2019-01-10T02:00:30.985Z,102305.56
2019-01-10T02:03:06.422Z,102303.44
2019-01-10T02:05:35.718Z,102303.44
2019-01-10T02:08:04.875Z,102304.61
2019-01-10T02:10:34.300Z,102303.78
2019-01-10T02:13:04.324Z,102309.03
2019-01-10T02:15:41.302Z,102316.09
2019-01-10T02:18:10.198Z,102317.39
2019-01-10T02:20:54.828Z,102318.94
2019-01-10T02:23:24.912Z,102319.20
2019-01-10T02:25:53.771Z,102327.97
2019-01-10T02:28:22.919Z,102331.27
2019-01-10T02:30:53.854Z,102339.79
2019-01-10T02:33:22.716Z,102334.70
2019-01-10T02:35:51.695Z,102327.73
2019-01-10T02:38:20.811Z,102338.98
2019-01-10T02:40:51.360Z,102330.92
2019-01-10T02:43:26.286Z,102341.95
2019-01-10T02:45:51.680Z,102345.50
2019-01-10T02:48:26.328Z,102353.77
2019-01-10T02:50:55.129Z,102336.26
2019-01-10T02:53:24.010Z,102337.94
2019-01-10T02:55:52.874Z,102335.75
2019-01-10T02:58:21.740Z,102338.84
2019-01-10T03:00:50.613Z,102343.09
2019-01-10T03:03:19.570Z,102344.84
2019-01-10T03:05:48.539Z,102337.44
2019-01-10T03:08:17.425Z,102337.41
2019-01-10T03:10:46.283Z,102338.27
2019-01-10T03:13:15.203Z,102344.80
2019-01-10T03:15:46.748Z,102344.89
2019-01-10T03:18:17.516Z,102345.03
2019-01-10T03:20:46.894Z,102337.69
2019-01-10T03:23:16.071Z,102343.00
2019-01-10T03:25:44.989Z,102341.59
2019-01-10T03:28:13.872Z,102338.76
2019-01-10T03:30:45.118Z,102342.06
2019-01-10T03:33:16.862Z,102342.19
2019-01-10T03:35:45.694Z,102339.59
2019-01-10T03:38:16.121Z,102336.03
2019-01-10T03:40:47.435Z,102336.26
2019-01-10T03:43:16.643Z,102331.42
2019-01-10T03:45:46.675Z,102332.95
2019-01-10T03:48:15.877Z,102332.73
2019-01-10T03:50:44.719Z,102334.60
2019-01-10T03:53:15.351Z,102331.05
2019-01-10T03:55:44.575Z,102330.22
2019-01-10T03:58:13.512Z,102327.23
2019-01-10T04:00:42.449Z,102322.63
2019-01-10T04:03:11.562Z,102327.71
2019-01-10T04:05:40.703Z,102321.57
2019-01-10T04:08:09.454Z,102326.91
2019-01-10T04:10:38.331Z,102329.06
2019-01-10T04:13:07.172Z,102324.17
2019-01-10T04:15:36.141Z,102331.64
2019-01-10T04:18:05.067Z,102320.17
2019-01-10T04:20:33.962Z,102331.06
2019-01-10T04:23:02.816Z,102322.30
2019-01-10T04:25:31.581Z,102320.27
2019-01-10T04:28:03.024Z,102324.66
2019-01-10T04:30:31.996Z,102325.13
2019-01-10T04:33:00.875Z,102327.61
2019-01-10T04:35:29.808Z,102319.47
2019-01-10T04:37:58.757Z,102325.48
2019-01-10T04:40:27.637Z,102331.64
2019-01-10T04:42:58.589Z,102324.53
2019-01-10T04:45:29.311Z,102330.95
2019-01-10T04:47:58.444Z,102325.73
2019-01-10T04:50:28.039Z,102328.09
2019-01-10T04:52:57.424Z,102334.25
2019-01-10T04:55:26.317Z,102323.83
2019-01-10T04:57:55.215Z,102326.56
2019-01-10T05:00:27.189Z,102325.73
2019-01-10T05:02:59.371Z,102334.15
2019-01-10T05:05:28.319Z,102334.60
2019-01-10T05:07:57.542Z,102336.64
2019-01-10T05:10:26.705Z,102334.83
2019-01-10T05:12:55.589Z,102336.73
2019-01-10T05:15:24.521Z,102341.47
2019-01-10T05:17:53.643Z,102334.73
2019-01-10T05:20:22.506Z,102335.91
2019-01-10T05:22:52.351Z,102336.26
2019-01-10T05:25:22.904Z,102340.39
2019-01-10T05:27:51.719Z,102339.09
2019-01-10T05:30:25.137Z,102336.73
2019-01-10T05:32:54.975Z,102344.20
2019-01-10T05:35:24.175Z,102337.21
2019-01-10T05:37:53.405Z,102343.37
2019-01-10T05:40:26.383Z,102344.07
2019-01-10T05:42:55.300Z,102339.71
2019-01-10T05:45:24.531Z,102343.74
2019-01-10T05:47:53.514Z,102351.53
2019-01-10T05:50:22.495Z,102357.83
2019-01-10T05:52:51.453Z,102358.18
2019-01-10T05:55:22.045Z,102350.97
2019-01-10T05:57:51.159Z,102352.62
2019-01-10T06:00:25.162Z,102344.67
2019-01-10T06:02:58.145Z,102348.83
2019-01-10T06:05:27.162Z,102351.44
2019-01-10T06:07:56.411Z,102355.72
2019-01-10T06:10:31.508Z,102355.11
2019-01-10T06:13:01.620Z,102356.05
2019-01-10T06:15:30.480Z,102359.23
2019-01-10T06:18:00.612Z,102358.05
2019-01-10T06:20:31.519Z,102364.91
2019-01-10T06:23:21.035Z,102362.56
2019-01-10T06:25:50.322Z,102363.62
2019-01-10T06:28:19.135Z,102370.26
2019-01-10T06:30:47.934Z,102372.39
2019-01-10T06:33:16.815Z,102373.92
2019-01-10T06:35:45.759Z,102376.41
2019-01-10T06:38:14.549Z,102372.73
2019-01-10T06:40:43.423Z,102377.72
2019-01-10T06:43:12.342Z,102387.31
2019-01-10T06:45:41.211Z,102384.45
2019-01-10T06:48:10.124Z,102387.91
2019-01-10T06:50:39.191Z,102387.55
2019-01-10T06:53:08.126Z,102391.22
2019-01-10T06:55:37.012Z,102398.69
2019-01-10T06:58:05.974Z,102398.80
2019-01-10T07:00:34.843Z,102398.31
2019-01-10T07:03:03.731Z,102399.05
2019-01-10T07:05:32.952Z,102413.94
2019-01-10T07:08:01.681Z,102409.81
2019-01-10T07:10:31.155Z,102409.69
2019-01-10T07:13:00.106Z,102414.30
2019-01-10T07:15:28.998Z,102407.56
2019-01-10T07:17:59.591Z,102409.34
2019-01-10T07:20:28.500Z,102410.17
2019-01-10T07:23:00.467Z,102414.42
2019-01-10T07:25:29.456Z,102411.83
2019-01-10T07:28:01.815Z,102415.48
2019-01-10T07:30:35.777Z,102420.36
2019-01-10T07:33:01.352Z,102422.62
2019-01-10T07:35:30.376Z,102422.95
2019-01-10T07:37:59.342Z,102420.36
2019-01-10T07:40:28.531Z,102421.88
2019-01-10T07:42:57.657Z,102423.78
2019-01-10T07:45:27.598Z,102423.17
2019-01-10T07:47:56.572Z,102422.11
2019-01-10T07:50:35.995Z,102433.73
2019-01-10T07:53:09.408Z,102431.59
2019-01-10T07:55:39.040Z,102430.89
2019-01-10T07:58:08.130Z,102437.98
2019-01-10T08:00:37.065Z,102430.89
2019-01-10T08:03:08.569Z,102436.45
2019-01-10T08:05:37.218Z,102439.89
2019-01-10T08:08:07.251Z,102440.97
2019-01-10T08:10:37.546Z,102438.60
2019-01-10T08:13:06.920Z,102445.82
2019-01-10T08:15:35.888Z,102441.31
2019-01-10T08:18:04.988Z,102439.17
2019-01-10T08:20:33.983Z,102445.12
2019-01-10T08:23:02.863Z,102443.08
2019-01-10T08:25:33.416Z,102447.37
2019-01-10T08:28:02.348Z,102446.77
2019-01-10T08:30:31.246Z,102455.75
2019-01-10T08:33:00.281Z,102455.42
2019-01-10T08:35:29.711Z,102449.59
2019-01-10T08:37:58.681Z,102454.09
2019-01-10T08:40:27.630Z,102456.02
2019-01-10T08:42:56.546Z,102457.80
2019-01-10T08:45:25.574Z,102458.95
2019-01-10T08:47:54.549Z,102460.02
2019-01-10T08:50:29.656Z,102462.98
2019-01-10T08:52:58.577Z,102468.21
2019-01-10T08:55:27.587Z,102471.51
2019-01-10T08:57:56.411Z,102474.94
2019-01-10T09:00:26.122Z,102481.22
2019-01-10T09:02:55.792Z,102471.03
2019-01-10T09:05:24.978Z,102475.65
2019-01-10T09:07:54.461Z,102477.90
2019-01-10T09:10:34.278Z,102482.63
2019-01-10T09:13:04.068Z,102477.08
2019-01-10T09:15:34.769Z,102477.55
2019-01-10T09:18:06.215Z,102479.79
2019-01-10T09:20:35.384Z,102482.39
2019-01-10T09:23:04.440Z,102473.98
2019-01-10T09:25:33.318Z,102493.30
2019-01-10T09:28:02.331Z,102491.05
2019-01-10T09:30:31.321Z,102489.75
2019-01-10T09:33:00.210Z,102494.00
2019-01-10T09:35:29.188Z,102492.22
2019-01-10T09:37:58.187Z,102495.42
2019-01-10T09:40:27.096Z,102496.61
2019-01-10T09:42:56.073Z,102497.91
2019-01-10T09:45:25.838Z,102501.01
2019-01-10T09:47:54.828Z,102505.38
2019-01-10T09:50:24.069Z,102500.05
2019-01-10T09:52:53.970Z,102495.77
2019-01-10T09:55:22.982Z,102500.27
2019-01-10T09:57:53.560Z,102504.41
2019-01-10T10:00:26.826Z,102504.77
2019-01-10T10:02:55.739Z,102510.70
2019-01-10T10:05:24.718Z,102506.28
2019-01-10T10:07:57.990Z,102516.47
2019-01-10T10:10:27.128Z,102511.03
2019-01-10T10:12:56.098Z,102512.44
2019-01-10T10:15:25.032Z,102499.52
2019-01-10T10:17:54.026Z,102498.81
2019-01-10T10:20:24.505Z,102494.30
2019-01-10T10:22:53.454Z,102502.48
2019-01-10T10:25:22.419Z,102501.06
2019-01-10T10:27:51.348Z,102495.02
2019-01-10T10:30:21.356Z,102491.33
2019-01-10T10:32:50.344Z,102496.42
2019-01-10T10:35:24.103Z,102497.25
2019-01-10T10:37:53.070Z,102496.52
2019-01-10T10:40:22.579Z,102501.02
2019-01-10T10:42:52.350Z,102502.29
2019-01-10T10:45:21.650Z,102505.25
2019-01-10T10:47:50.696Z,102499.45
2019-01-10T10:50:22.219Z,102498.47
2019-01-10T10:52:52.575Z,102491.00
2019-01-10T10:55:21.540Z,102495.83
2019-01-10T10:57:50.572Z,102498.45
2019-01-10T11:00:22.234Z,102496.31
2019-01-10T11:02:51.191Z,102490.74
2019-01-10T11:05:21.422Z,102495.73
2019-01-10T11:07:50.329Z,102495.14
2019-01-10T11:10:19.670Z,102491.34
2019-01-10T11:12:49.243Z,102487.69
2019-01-10T11:15:18.459Z,102489.44
2019-01-10T11:17:48.606Z,102480.47
2019-01-10T11:20:24.428Z,102481.45
2019-01-10T11:22:54.651Z,102482.82
2019-01-10T11:25:28.592Z,102484.37
2019-01-10T11:31:25.432Z,102473.17
2019-01-10T11:33:57.586Z,102474.57
2019-01-10T11:36:26.740Z,102475.75
2019-01-10T11:38:56.199Z,102471.05
2019-01-10T11:41:25.427Z,102470.09
2019-01-10T11:43:57.259Z,102469.36
2019-01-10T11:46:27.632Z,102465.48
2019-01-10T11:52:36.595Z,102461.44
2019-01-10T11:55:06.101Z,102457.70
2019-01-10T11:57:35.161Z,102453.65
2019-01-10T12:00:05.619Z,102454.00
2019-01-10T12:02:36.464Z,102452.47
2019-01-10T12:05:56.098Z,102455.52
2019-01-10T12:08:25.064Z,102448.04
2019-01-10T12:10:53.950Z,102449.95
2019-01-10T12:13:23.702Z,102455.78
2019-01-10T12:15:53.079Z,102455.44
2019-01-10T12:18:29.733Z,102455.31
2019-01-10T12:20:59.810Z,102449.52
2019-01-10T12:23:28.586Z,102445.34
2019-01-10T12:25:57.546Z,102439.65
2019-01-10T12:28:26.707Z,102444.64
2019-01-10T12:30:55.626Z,102435.73
2019-01-10T12:33:25.097Z,102439.77
2019-01-10T12:35:54.102Z,102432.59
2019-01-10T12:38:23.283Z,102433.20
2019-01-10T12:40:52.211Z,102430.37
2019-01-10T12:43:21.356Z,102422.89
2019-01-10T12:45:50.353Z,102423.59
2019-01-10T12:48:19.258Z,102428.33
2019-01-10T12:50:48.158Z,102421.59
2019-01-10T12:53:17.187Z,102422.98
2019-01-10T12:55:46.175Z,102422.89
2019-01-10T12:58:18.497Z,102416.10
2019-01-10T13:00:47.395Z,102418.02
2019-01-10T13:03:17.398Z,102414.36
2019-01-10T13:05:46.301Z,102415.32
2019-01-10T13:08:15.304Z,102407.36
2019-01-10T13:10:44.303Z,102410.53
2019-01-10T13:13:15.583Z,102409.92
2019-01-10T13:15:44.518Z,102414.06
2019-01-10T13:18:13.470Z,102412.87
2019-01-10T13:20:42.486Z,102418.45
2019-01-10T13:23:11.462Z,102416.80
2019-01-10T13:25:40.332Z,102412.87
2019-01-10T13:28:09.312Z,102418.02
2019-01-10T13:30:38.283Z,102408.19
2019-01-10T13:33:07.163Z,102407.98
2019-01-10T13:35:36.134Z,102408.20
2019-01-10T13:38:05.185Z,102406.33
2019-01-10T13:40:34.229Z,102404.20
2019-01-10T13:43:05.091Z,102393.84
2019-01-10T13:45:36.342Z,102402.09
2019-01-10T13:48:05.873Z,102400.15
2019-01-10T13:50:35.057Z,102405.06
2019-01-10T13:53:04.303Z,102404.03
2019-01-10T13:55:33.513Z,102411.64
2019-01-10T13:58:02.480Z,102408.68
2019-01-10T14:00:35.594Z,102406.63
2019-01-10T14:03:02.876Z,102399.15
2019-01-10T14:05:31.891Z,102399.15
2019-01-10T14:08:00.871Z,102408.41
2019-01-10T14:10:29.836Z,102408.16
2019-01-10T14:12:58.738Z,102419.59
2019-01-10T14:15:30.428Z,102413.33
2019-01-10T14:20:41.665Z,102403.33
2019-01-10T14:23:22.919Z,102404.84
2019-01-10T14:25:51.791Z,102411.28
2019-01-10T14:28:20.767Z,102414.98
2019-01-10T14:30:49.756Z,102418.33
2019-01-10T14:33:18.691Z,102417.24
2019-01-10T14:35:47.587Z,102412.50
2019-01-10T14:38:16.540Z,102407.10
2019-01-10T14:40:45.509Z,102411.72
2019-01-10T14:43:14.424Z,102415.75
2019-01-10T14:45:43.900Z,102425.02
2019-01-10T14:48:12.776Z,102418.59
2019-01-10T14:50:41.802Z,102417.28
2019-01-10T14:53:10.736Z,102416.37
2019-01-10T14:55:39.695Z,102415.15
2019-01-10T14:58:08.733Z,102414.67
2019-01-10T15:00:37.762Z,102421.01
2019-01-10T15:03:06.689Z,102426.23
2019-01-10T15:05:35.571Z,102423.62
2019-01-10T15:08:04.868Z,102419.20
2019-01-10T15:10:33.929Z,102424.80
2019-01-10T15:13:02.869Z,102418.40
2019-01-10T15:15:31.672Z,102420.05
2019-01-10T15:18:00.633Z,102418.66
2019-01-10T15:20:31.082Z,102420.22
2019-01-10T15:23:00.013Z,102417.86
2019-01-10T15:25:28.976Z,102425.42
2019-01-10T15:27:57.927Z,102419.26
2019-01-10T15:30:28.105Z,102416.91
2019-01-10T15:32:57.386Z,102420.09
2019-01-10T15:35:26.408Z,102424.95
2019-01-10T15:37:55.304Z,102425.30
2019-01-10T15:40:31.995Z,102420.34
2019-01-10T15:43:01.058Z,102423.92
2019-01-10T15:45:30.041Z,102415.53
2019-01-10T15:47:59.017Z,102407.94
2019-01-10T15:50:28.015Z,102411.97
2019-01-10T15:52:56.976Z,102410.89
2019-01-10T15:55:25.879Z,102413.53
2019-01-10T15:57:54.819Z,102407.70
2019-01-10T16:00:24.437Z,102410.80
2019-01-10T16:02:53.457Z,102410.80
2019-01-10T16:05:22.382Z,102407.13
2019-01-10T16:07:51.328Z,102407.00
2019-01-10T16:10:20.673Z,102397.05
2019-01-10T16:12:49.974Z,102403.92
2019-01-10T16:15:20.602Z,102396.80
2019-01-10T16:17:49.610Z,102388.92
2019-01-10T16:20:21.734Z,102389.27
2019-01-10T16:22:50.757Z,102384.30
2019-01-10T16:25:19.928Z,102383.55
2019-01-10T16:27:48.930Z,102375.47
2019-01-10T16:30:28.307Z,102373.59
2019-01-10T16:32:57.269Z,102383.99
2019-01-10T16:35:26.158Z,102383.23
2019-01-10T16:37:55.121Z,102391.78
2019-01-10T16:40:24.034Z,102384.02
2019-01-10T16:42:52.977Z,102383.67
2019-01-10T16:45:29.853Z,102386.95
2019-01-10T16:47:58.747Z,102383.56
2019-01-10T16:50:27.653Z,102381.28
2019-01-10T16:52:56.553Z,102381.41
2019-01-10T16:55:25.543Z,102382.74
2019-01-10T16:57:54.998Z,102378.33
2019-01-10T17:00:32.443Z,102372.51
2019-01-10T17:03:01.917Z,102373.94
2019-01-10T17:05:57.713Z,102376.70
2019-01-10T17:08:26.594Z,102368.98
2019-01-10T17:10:56.169Z,102380.38
2019-01-10T17:13:25.197Z,102376.38
2019-01-10T17:15:54.155Z,102379.68
2019-01-10T17:18:23.152Z,102373.05
2019-01-10T17:20:52.199Z,102373.99
2019-01-10T17:23:21.227Z,102377.25
2019-01-10T17:25:50.267Z,102374.80
2019-01-10T17:28:19.253Z,102374.16
2019-01-10T17:30:48.249Z,102368.28
2019-01-10T17:33:20.736Z,102363.55
2019-01-10T17:35:51.358Z,102361.80
2019-01-10T17:38:21.415Z,102362.72
2019-01-10T17:40:53.119Z,102360.46
2019-01-10T17:43:22.268Z,102365.67
2019-01-10T17:45:53.534Z,102360.66
2019-01-10T17:48:24.974Z,102362.08
2019-01-10T17:50:54.006Z,102364.84
2019-01-10T17:53:22.883Z,102364.34
2019-01-10T17:55:51.824Z,102365.55
2019-01-10T17:58:38.938Z,102357.95
2019-01-10T18:01:07.902Z,102359.31
2019-01-10T18:03:40.171Z,102359.48
2019-01-10T18:06:07.545Z,102356.17
2019-01-10T18:08:36.435Z,102357.09
2019-01-10T18:11:05.413Z,102359.48
2019-01-10T18:13:34.356Z,102355.91
2019-01-10T18:16:03.322Z,102356.70
2019-01-10T18:18:32.194Z,102361.61
2019-01-10T18:21:01.195Z,102353.95
2019-01-10T18:23:30.244Z,102355.91
2019-01-10T18:26:01.219Z,102354.99
2019-01-10T18:28:32.519Z,102354.07
2019-01-10T18:31:01.297Z,102354.55
2019-01-10T18:33:31.593Z,102351.37
2019-01-10T18:39:28.749Z,102349.02
2019-01-10T18:41:57.753Z,102355.87
2019-01-10T18:44:26.672Z,102353.31
2019-01-10T18:46:55.619Z,102357.83
2019-01-10T18:49:30.450Z,102365.48
2019-01-10T18:51:55.765Z,102368.08
2019-01-10T18:54:24.754Z,102363.34
2019-01-10T18:56:56.859Z,102367.61
2019-01-10T18:59:25.746Z,102361.92
2019-01-10T19:02:01.990Z,102365.48
2019-01-10T19:04:30.902Z,102364.66
2019-01-10T19:07:02.159Z,102354.52
2019-01-10T19:09:31.097Z,102346.70
2019-01-10T19:12:00.079Z,102349.30
2019-01-10T19:14:28.991Z,102354.70
2019-01-10T19:16:57.801Z,102359.66
2019-01-10T19:19:26.869Z,102358.86
2019-01-10T19:21:55.821Z,102360.28
2019-01-10T19:24:24.755Z,102358.30
2019-01-10T19:26:53.723Z,102358.40
2019-01-10T19:29:23.793Z,102358.98
2019-01-10T19:31:53.367Z,102356.05
2019-01-10T19:34:25.477Z,102359.01
2019-01-10T19:36:54.409Z,102361.95
2019-01-10T19:39:23.318Z,102365.16
2019-01-10T19:41:52.353Z,102365.77
2019-01-10T19:44:21.367Z,102363.14
2019-01-10T19:46:50.287Z,102364.45
2019-01-10T19:49:19.328Z,102367.91
2019-01-10T19:51:48.205Z,102361.86
2019-01-10T19:54:18.036Z,102363.04
2019-01-10T19:56:48.137Z,102363.26
2019-01-10T19:59:17.168Z,102359.95
2019-01-10T20:01:46.039Z,102362.58
2019-01-10T20:04:15.158Z,102365.28
2019-01-10T20:06:44.186Z,102363.76
2019-01-10T20:09:13.251Z,102358.34
2019-01-10T20:11:42.974Z,102352.52
2019-01-10T20:14:11.979Z,102354.30
2019-01-10T20:16:40.956Z,102347.33
2019-01-10T20:19:11.504Z,102350.28
2019-01-10T20:21:40.507Z,102339.77
2019-01-10T20:24:09.540Z,102340.48
2019-01-10T20:26:42.877Z,102342.02
2019-01-10T20:29:13.233Z,102336.44
2019-01-10T20:31:43.893Z,102327.94
2019-01-10T20:34:13.196Z,102331.49
2019-01-10T20:36:42.396Z,102330.19
2019-01-10T20:39:11.873Z,102329.58
2019-01-10T20:41:43.484Z,102332.88
2019-01-10T20:44:15.010Z,102328.27
2019-01-10T20:46:47.546Z,102317.52
2019-01-10T20:49:17.128Z,102319.42
2019-01-10T20:51:46.149Z,102317.63
2019-01-10T20:54:15.177Z,102310.54
2019-01-10T20:56:44.220Z,102317.27
2019-01-10T20:59:13.620Z,102319.78
2019-01-10T21:01:42.551Z,102319.42
2019-01-10T21:04:11.541Z,102319.05
2019-01-10T21:06:40.612Z,102314.69
2019-01-10T21:09:13.086Z,102318.34
2019-01-10T21:11:40.545Z,102315.99
2019-01-10T21:14:09.550Z,102317.63
2019-01-10T21:16:38.589Z,102314.45
2019-01-10T21:19:07.781Z,102310.20
2019-01-10T21:21:37.229Z,102310.42
2019-01-10T21:24:06.517Z,102317.03
2019-01-10T21:26:35.595Z,102303.08
2019-01-10T21:29:04.600Z,102304.50
2019-01-10T21:31:34.060Z,102308.89
2019-01-10T21:34:03.057Z,102298.13
2019-01-10T21:36:32.010Z,102298.95
2019-01-10T21:39:00.953Z,102289.95
2019-01-10T21:41:29.855Z,102291.13
2019-01-10T21:43:58.789Z,102289.83
2019-01-10T21:46:27.816Z,102285.05
2019-01-10T21:48:56.835Z,102289.70
2019-01-10T21:51:25.742Z,102284.59
2019-01-10T21:53:54.642Z,102281.52
2019-01-10T21:56:23.765Z,102283.19
2019-01-10T21:58:52.790Z,102280.94
2019-01-10T22:01:21.818Z,102272.09
2019-01-10T22:03:50.759Z,102273.86
2019-01-10T22:06:19.716Z,102268.04
2019-01-10T22:08:48.728Z,102266.52
2019-01-10T22:11:20.829Z,102260.23
2019-01-10T22:13:49.744Z,102260.83
2019-01-10T22:16:18.646Z,102256.67
2019-01-10T22:18:47.523Z,102255.62
2019-01-10T22:21:16.571Z,102249.94
2019-01-10T22:23:45.848Z,102245.45
2019-01-10T22:26:14.883Z,102236.80
2019-01-10T22:28:43.961Z,102231.11
2019-01-10T22:31:13.018Z,102241.33
2019-01-10T22:33:42.098Z,102235.06
2019-01-10T22:36:11.272Z,102236.97
2019-01-10T22:38:40.384Z,102242.17
2019-01-10T22:41:09.432Z,102231.48
2019-01-10T22:43:38.373Z,102227.70
2019-01-10T22:46:07.933Z,102229.72
2019-01-10T22:48:36.919Z,102217.05
2019-01-10T22:51:08.183Z,102221.77
2019-01-10T22:53:38.433Z,102216.24
2019-01-10T22:56:08.679Z,102207.98
2019-01-10T22:58:39.939Z,102202.47
2019-01-10T23:01:39.684Z,102197.29
2019-01-10T23:04:10.033Z,102191.95
2019-01-10T23:06:39.025Z,102195.83
2019-01-10T23:09:09.802Z,102190.15
2019-01-10T23:11:38.954Z,102187.58
2019-01-10T23:14:08.131Z,102189.23
2019-01-10T23:16:37.395Z,102186.84
2019-01-10T23:19:07.076Z,102177.57
2019-01-10T23:21:40.606Z,102176.05
2019-01-10T23:24:19.793Z,102172.66
2019-01-10T23:26:55.736Z,102161.47
2019-01-10T23:29:31.639Z,102153.75
2019-01-10T23:32:02.915Z,102156.64
2019-01-10T23:34:31.882Z,102152.48
2019-01-10T23:37:00.846Z,102147.78
2019-01-10T23:39:29.827Z,102141.55
2019-01-10T23:41:58.959Z,102144.32
2019-01-10T23:44:28.043Z,102134.20
2019-01-10T23:46:56.976Z,102131.69
2019-01-10T23:49:25.928Z,102125.78
2019-01-10T23:51:54.983Z,102122.09
2019-01-10T23:54:23.898Z,102123.05
2019-01-10T23:56:52.794Z,102115.93
2019-01-10T23:59:22.811Z,102111.33
